sensor_id;sensor_type;location;lat;lon;timestamp;pressure;altitude;pressure_sealevel;temperature;humidity
77590;BME280;66746;51.328;12.332;2023-03-12T00:00:58;100133.66;;;-2.17;86.00
77590;BME280;66746;51.328;12.332;2023-03-12T00:03:25;100108.78;;;-2.31;84.99
77590;BME280;66746;51.328;12.332;2023-03-12T00:05:55;100095.50;;;-2.31;85.42
77590;BME280;66746;51.328;12.332;2023-03-12T00:08:35;100136.47;;;-2.02;86.33
77590;BME280;66746;51.328;12.332;2023-03-12T00:11:07;100109.75;;;-2.19;86.37
77590;BME280;66746;51.328;12.332;2023-03-12T00:13:33;100119.63;;;-2.06;87.84
77590;BME280;66746;51.328;12.332;2023-03-12T00:16:05;100130.25;;;-2.04;84.24
77590;BME280;66746;51.328;12.332;2023-03-12T00:18:32;100124.84;;;-2.16;83.84
77590;BME280;66746;51.328;12.332;2023-03-12T00:20:58;100137.16;;;-2.24;83.03
77590;BME280;66746;51.328;12.332;2023-03-12T00:23:25;100127.44;;;-2.24;84.64
77590;BME280;66746;51.328;12.332;2023-03-12T00:25:52;100145.16;;;-2.20;84.93
77590;BME280;66746;51.328;12.332;2023-03-12T00:28:21;100139.75;;;-2.29;84.71
77590;BME280;66746;51.328;12.332;2023-03-12T00:30:47;100143.22;;;-2.34;83.52
77590;BME280;66746;51.328;12.332;2023-03-12T00:33:14;100152.94;;;-2.39;83.07
77590;BME280;66746;51.328;12.332;2023-03-12T00:35:40;100112.84;;;-2.65;83.84
77590;BME280;66746;51.328;12.332;2023-03-12T00:38:07;100145.75;;;-2.46;83.58
77590;BME280;66746;51.328;12.332;2023-03-12T00:40:33;100148.53;;;-2.34;86.21
77590;BME280;66746;51.328;12.332;2023-03-12T00:43:00;100151.31;;;-2.25;86.56
77590;BME280;66746;51.328;12.332;2023-03-12T00:45:27;100148.66;;;-2.25;87.44
77590;BME280;66746;51.328;12.332;2023-03-12T00:47:56;100153.06;;;-2.24;84.46
77590;BME280;66746;51.328;12.332;2023-03-12T00:50:28;100144.13;;;-2.32;84.98
77590;BME280;66746;51.328;12.332;2023-03-12T00:52:59;100118.28;;;-2.53;84.73
77590;BME280;66746;51.328;12.332;2023-03-12T00:55:31;100138.75;;;-2.43;85.52
77590;BME280;66746;51.328;12.332;2023-03-12T00:57:58;100157.47;;;-2.29;85.72
77590;BME280;66746;51.328;12.332;2023-03-12T01:00:32;100153.94;;;-2.27;86.41
77590;BME280;66746;51.328;12.332;2023-03-12T01:02:59;100146.00;;;-2.24;86.73
77590;BME280;66746;51.328;12.332;2023-03-12T01:05:26;100145.09;;;-2.27;85.47
77590;BME280;66746;51.328;12.332;2023-03-12T01:08:00;100122.88;;;-2.35;87.25
77590;BME280;66746;51.328;12.332;2023-03-12T01:10:28;100132.59;;;-2.36;84.79
77590;BME280;66746;51.328;12.332;2023-03-12T01:12:58;100153.16;;;-2.15;87.24
77590;BME280;66746;51.328;12.332;2023-03-12T01:15:29;100136.31;;;-2.20;85.37
77590;BME280;66746;51.328;12.332;2023-03-12T01:18:00;100148.75;;;-2.15;85.64
77590;BME280;66746;51.328;12.332;2023-03-12T01:20:28;100136.16;;;-2.35;85.14
77590;BME280;66746;51.328;12.332;2023-03-12T01:22:57;100140.53;;;-2.39;84.44
77590;BME280;66746;51.328;12.332;2023-03-12T01:25:29;100142.31;;;-2.39;85.30
77590;BME280;66746;51.328;12.332;2023-03-12T01:27:59;100139.53;;;-2.48;85.46
77590;BME280;66746;51.328;12.332;2023-03-12T01:30:28;100127.91;;;-2.62;85.49
77590;BME280;66746;51.328;12.332;2023-03-12T01:32:55;100142.09;;;-2.57;84.51
77590;BME280;66746;51.328;12.332;2023-03-12T01:35:29;100136.81;;;-2.56;86.53
77590;BME280;66746;51.328;12.332;2023-03-12T01:37:58;100129.84;;;-2.46;85.65
77590;BME280;66746;51.328;12.332;2023-03-12T01:40:32;100149.44;;;-2.32;86.32
77590;BME280;66746;51.328;12.332;2023-03-12T01:43:21;100142.38;;;-2.33;85.93
77590;BME280;66746;51.328;12.332;2023-03-12T01:46:04;100103.13;;;-2.61;86.12
77590;BME280;66746;51.328;12.332;2023-03-12T01:48:35;100125.34;;;-2.52;86.01
77590;BME280;66746;51.328;12.332;2023-03-12T01:51:05;100125.28;;;-2.56;86.60
77590;BME280;66746;51.328;12.332;2023-03-12T01:53:34;100152.94;;;-2.36;87.74
77590;BME280;66746;51.328;12.332;2023-03-12T01:56:02;100133.50;;;-2.35;88.64
77590;BME280;66746;51.328;12.332;2023-03-12T01:58:32;100135.28;;;-2.34;86.31
77590;BME280;66746;51.328;12.332;2023-03-12T02:01:01;100097.00;;;-2.54;87.04
77590;BME280;66746;51.328;12.332;2023-03-12T02:03:28;100125.50;;;-2.38;85.98
77590;BME280;66746;51.328;12.332;2023-03-12T02:05:59;100145.94;;;-2.28;86.36
77590;BME280;66746;51.328;12.332;2023-03-12T02:08:29;100141.56;;;-2.25;86.39
77590;BME280;66746;51.328;12.332;2023-03-12T02:10:59;100144.28;;;-2.20;85.28
77590;BME280;66746;51.328;12.332;2023-03-12T02:13:28;100141.63;;;-2.17;87.28
77590;BME280;66746;51.328;12.332;2023-03-12T02:16:01;100127.41;;;-2.25;85.24
77590;BME280;66746;51.328;12.332;2023-03-12T02:18:28;100129.19;;;-2.26;86.15
77590;BME280;66746;51.328;12.332;2023-03-12T02:21:02;100114.16;;;-2.22;85.90
77590;BME280;66746;51.328;12.332;2023-03-12T02:23:34;100134.56;;;-2.17;85.43
77590;BME280;66746;51.328;12.332;2023-03-12T02:26:06;100140.72;;;-2.22;85.45
77590;BME280;66746;51.328;12.332;2023-03-12T02:28:35;100145.94;;;-2.28;84.68
77590;BME280;66746;51.328;12.332;2023-03-12T02:31:03;100143.34;;;-2.25;85.32
77590;BME280;66746;51.328;12.332;2023-03-12T02:33:30;100146.91;;;-2.20;85.82
77590;BME280;66746;51.328;12.332;2023-03-12T02:35:59;100100.69;;;-2.42;85.93
77590;BME280;66746;51.328;12.332;2023-03-12T02:38:40;100131.81;;;-2.27;86.17
77590;BME280;66746;51.328;12.332;2023-03-12T02:41:13;100115.72;;;-2.44;85.01
77590;BME280;66746;51.328;12.332;2023-03-12T02:43:43;100150.38;;;-2.29;83.96
77590;BME280;66746;51.328;12.332;2023-03-12T02:46:11;100121.84;;;-2.51;85.93
77590;BME280;66746;51.328;12.332;2023-03-12T02:48:37;100116.53;;;-2.49;87.00
77590;BME280;66746;51.328;12.332;2023-03-12T02:51:04;100154.75;;;-2.32;85.72
77590;BME280;66746;51.328;12.332;2023-03-12T02:53:31;100159.28;;;-2.22;86.02
77590;BME280;66746;51.328;12.332;2023-03-12T02:55:58;100167.25;;;-2.22;83.33
77590;BME280;66746;51.328;12.332;2023-03-12T02:58:26;100161.09;;;-2.20;84.77
77590;BME280;66746;51.328;12.332;2023-03-12T03:00:53;100145.94;;;-2.28;84.04
77590;BME280;66746;51.328;12.332;2023-03-12T03:03:30;100170.75;;;-2.26;83.43
77590;BME280;66746;51.328;12.332;2023-03-12T03:05:58;100136.94;;;-2.45;85.00
77590;BME280;66746;51.328;12.332;2023-03-12T03:08:32;100143.28;;;-2.31;85.68
77590;BME280;66746;51.328;12.332;2023-03-12T03:10:59;100157.47;;;-2.28;84.68
77590;BME280;66746;51.328;12.332;2023-03-12T03:13:28;100169.00;;;-2.24;84.71
77590;BME280;66746;51.328;12.332;2023-03-12T03:16:01;100145.69;;;-2.52;85.71
77590;BME280;66746;51.328;12.332;2023-03-12T03:18:29;100177.75;;;-2.34;84.95
77590;BME280;66746;51.328;12.332;2023-03-12T03:21:00;100168.72;;;-2.48;84.83
77590;BME280;66746;51.328;12.332;2023-03-12T03:23:29;100187.25;;;-2.54;82.29
77590;BME280;66746;51.328;12.332;2023-03-12T03:25:56;100189.72;;;-2.68;82.16
77590;BME280;66746;51.328;12.332;2023-03-12T03:28:27;100160.28;;;-2.91;86.17
77590;BME280;66746;51.328;12.332;2023-03-12T03:30:58;100140.78;;;-2.94;86.83
77590;BME280;66746;51.328;12.332;2023-03-12T03:33:29;100152.25;;;-2.97;85.03
77590;BME280;66746;51.328;12.332;2023-03-12T03:36:00;100161.13;;;-2.95;85.26
77590;BME280;66746;51.328;12.332;2023-03-12T03:38:30;100183.34;;;-2.84;84.84
77590;BME280;66746;51.328;12.332;2023-03-12T03:41:00;100184.31;;;-2.79;86.43
77590;BME280;66746;51.328;12.332;2023-03-12T03:43:28;100182.66;;;-2.71;85.76
77590;BME280;66746;51.328;12.332;2023-03-12T03:46:00;100178.94;;;-2.82;84.29
77590;BME280;66746;51.328;12.332;2023-03-12T03:48:30;100178.75;;;-3.00;83.91
77590;BME280;66746;51.328;12.332;2023-03-12T03:50:59;100158.88;;;-3.29;84.39
77590;BME280;66746;51.328;12.332;2023-03-12T03:53:27;100170.38;;;-3.27;85.29
77590;BME280;66746;51.328;12.332;2023-03-12T03:55:55;100194.41;;;-3.15;86.91
77590;BME280;66746;51.328;12.332;2023-03-12T03:58:22;100172.09;;;-3.32;86.59
77590;BME280;66746;51.328;12.332;2023-03-12T04:01:00;100199.63;;;-3.21;85.96
77590;BME280;66746;51.328;12.332;2023-03-12T04:03:29;100184.63;;;-3.19;88.74
77590;BME280;66746;51.328;12.332;2023-03-12T04:06:00;100198.06;;;-3.07;90.11
77590;BME280;66746;51.328;12.332;2023-03-12T04:08:28;100204.28;;;-3.06;88.11
77590;BME280;66746;51.328;12.332;2023-03-12T04:10:55;100193.75;;;-3.02;89.20
77590;BME280;66746;51.328;12.332;2023-03-12T04:13:26;100176.94;;;-3.02;88.89
77590;BME280;66746;51.328;12.332;2023-03-12T04:16:00;100203.53;;;-2.96;86.85
77590;BME280;66746;51.328;12.332;2023-03-12T04:18:28;100168.00;;;-3.09;89.50
77590;BME280;66746;51.328;12.332;2023-03-12T04:20:57;100204.63;;;-2.81;88.16
77590;BME280;66746;51.328;12.332;2023-03-12T04:23:30;100165.44;;;-3.01;88.17
77590;BME280;66746;51.328;12.332;2023-03-12T04:25:59;100197.56;;;-2.80;86.95
77590;BME280;66746;51.328;12.332;2023-03-12T04:28:30;100192.03;;;-2.95;85.91
77590;BME280;66746;51.328;12.332;2023-03-12T04:31:01;100164.31;;;-3.20;87.10
77590;BME280;66746;51.328;12.332;2023-03-12T04:33:36;100208.81;;;-2.98;87.33
77590;BME280;66746;51.328;12.332;2023-03-12T04:36:04;100203.66;;;-2.86;86.61
77590;BME280;66746;51.328;12.332;2023-03-12T04:38:33;100157.53;;;-2.97;86.63
77590;BME280;66746;51.328;12.332;2023-03-12T04:41:01;100172.72;;;-2.84;85.76
77590;BME280;66746;51.328;12.332;2023-03-12T04:43:29;100184.41;;;-2.70;86.99
77590;BME280;66746;51.328;12.332;2023-03-12T04:45:57;100196.03;;;-2.60;86.84
77590;BME280;66746;51.328;12.332;2023-03-12T04:48:24;100191.63;;;-2.59;85.43
77590;BME280;66746;51.328;12.332;2023-03-12T04:50:53;100191.59;;;-2.62;85.06
77590;BME280;66746;51.328;12.332;2023-03-12T04:53:20;100192.44;;;-2.66;85.30
77590;BME280;66746;51.328;12.332;2023-03-12T04:55:48;100199.38;;;-2.76;85.00
77590;BME280;66746;51.328;12.332;2023-03-12T04:58:16;100195.78;;;-2.81;85.49
77590;BME280;66746;51.328;12.332;2023-03-12T05:00:43;100201.72;;;-2.99;84.10
77590;BME280;66746;51.328;12.332;2023-03-12T05:03:10;100204.22;;;-3.09;84.55
77590;BME280;66746;51.328;12.332;2023-03-12T05:05:36;100194.38;;;-3.18;84.87
77590;BME280;66746;51.328;12.332;2023-03-12T05:08:05;100199.59;;;-3.25;85.18
77590;BME280;66746;51.328;12.332;2023-03-12T05:10:34;100195.88;;;-3.36;86.02
77590;BME280;66746;51.328;12.332;2023-03-12T05:13:01;100180.63;;;-3.52;86.63
77590;BME280;66746;51.328;12.332;2023-03-12T05:15:28;100200.16;;;-3.44;87.11
77590;BME280;66746;51.328;12.332;2023-03-12T05:17:58;100170.66;;;-3.67;86.31
77590;BME280;66746;51.328;12.332;2023-03-12T05:20:31;100178.69;;;-3.63;87.19
77590;BME280;66746;51.328;12.332;2023-03-12T05:22:58;100193.69;;;-3.63;87.00
77590;BME280;66746;51.328;12.332;2023-03-12T05:25:28;100174.94;;;-3.75;87.04
77590;BME280;66746;51.328;12.332;2023-03-12T05:27:57;100196.25;;;-3.68;87.32
77590;BME280;66746;51.328;12.332;2023-03-12T05:30:29;100191.75;;;-3.73;87.37
77590;BME280;66746;51.328;12.332;2023-03-12T05:32:58;100203.38;;;-3.64;87.63
77590;BME280;66746;51.328;12.332;2023-03-12T05:35:25;100209.59;;;-3.63;88.29
77590;BME280;66746;51.328;12.332;2023-03-12T05:37:55;100179.31;;;-3.77;88.17
77590;BME280;66746;51.328;12.332;2023-03-12T05:40:31;100192.63;;;-3.74;87.06
77590;BME280;66746;51.328;12.332;2023-03-12T05:42:58;100210.38;;;-3.70;87.92
77590;BME280;66746;51.328;12.332;2023-03-12T05:45:29;100181.06;;;-3.79;87.69
77590;BME280;66746;51.328;12.332;2023-03-12T05:48:00;100171.25;;;-3.86;87.53
77590;BME280;66746;51.328;12.332;2023-03-12T05:50:28;100181.88;;;-3.83;87.43
77590;BME280;66746;51.328;12.332;2023-03-12T05:52:55;100215.84;;;-3.58;87.61
77590;BME280;66746;51.328;12.332;2023-03-12T05:55:30;100191.91;;;-3.64;89.14
77590;BME280;66746;51.328;12.332;2023-03-12T05:58:00;100173.31;;;-3.69;88.14
77590;BME280;66746;51.328;12.332;2023-03-12T06:00:29;100202.75;;;-3.49;87.06
77590;BME280;66746;51.328;12.332;2023-03-12T06:02:58;100182.28;;;-3.59;87.26
77590;BME280;66746;51.328;12.332;2023-03-12T06:05:29;100203.69;;;-3.45;86.51
77590;BME280;66746;51.328;12.332;2023-03-12T06:07:55;100204.72;;;-3.36;88.48
77590;BME280;66746;51.328;12.332;2023-03-12T06:10:28;100206.72;;;-3.20;87.36
77590;BME280;66746;51.328;12.332;2023-03-12T06:13:02;100178.50;;;-3.15;86.29
77590;BME280;66746;51.328;12.332;2023-03-12T06:15:29;100186.75;;;-2.94;85.17
77590;BME280;66746;51.328;12.332;2023-03-12T06:18:02;100200.38;;;-2.66;85.16
77590;BME280;66746;51.328;12.332;2023-03-12T06:20:28;100198.91;;;-2.42;84.59
77590;BME280;66746;51.328;12.332;2023-03-12T06:23:01;100193.81;;;-2.22;84.90
77590;BME280;66746;51.328;12.332;2023-03-12T06:25:29;100169.97;;;-2.16;83.37
77590;BME280;66746;51.328;12.332;2023-03-12T06:28:03;100163.94;;;-2.00;84.51
77590;BME280;66746;51.328;12.332;2023-03-12T06:30:30;100171.25;;;-1.72;84.07
77590;BME280;66746;51.328;12.332;2023-03-12T06:32:58;100181.19;;;-1.48;82.36
77590;BME280;66746;51.328;12.332;2023-03-12T06:35:31;100197.38;;;-1.20;81.21
77590;BME280;66746;51.328;12.332;2023-03-12T06:38:01;100190.41;;;-0.95;81.87
77590;BME280;66746;51.328;12.332;2023-03-12T06:40:29;100195.84;;;-0.77;78.55
77590;BME280;66746;51.328;12.332;2023-03-12T06:42:58;100196.75;;;-0.73;78.00
77590;BME280;66746;51.328;12.332;2023-03-12T06:45:29;100155.81;;;-0.94;79.55
77590;BME280;66746;51.328;12.332;2023-03-12T06:48:02;100162.00;;;-1.01;77.86
77590;BME280;66746;51.328;12.332;2023-03-12T06:50:29;100172.66;;;-0.98;78.69
77590;BME280;66746;51.328;12.332;2023-03-12T06:52:59;100185.13;;;-0.92;79.41
77590;BME280;66746;51.328;12.332;2023-03-12T06:55:28;100176.28;;;-0.85;78.77
77590;BME280;66746;51.328;12.332;2023-03-12T06:57:58;100197.66;;;-0.65;77.73
77590;BME280;66746;51.328;12.332;2023-03-12T07:00:29;100162.22;;;-0.57;77.14
77590;BME280;66746;51.328;12.332;2023-03-12T07:02:59;100205.00;;;-0.04;77.04
77590;BME280;66746;51.328;12.332;2023-03-12T07:05:28;100206.75;;;-0.11;77.59
77590;BME280;66746;51.328;12.332;2023-03-12T07:08:02;100190.69;;;-0.27;76.68
77590;BME280;66746;51.328;12.332;2023-03-12T07:10:29;100203.16;;;-0.22;76.12
77590;BME280;66746;51.328;12.332;2023-03-12T07:13:01;100196.97;;;-0.07;76.97
77590;BME280;66746;51.328;12.332;2023-03-12T07:15:30;100181.03;;;0.23;77.33
77590;BME280;66746;51.328;12.332;2023-03-12T07:17:59;100187.25;;;0.37;75.97
77590;BME280;66746;51.328;12.332;2023-03-12T07:20:32;100175.72;;;0.35;76.74
77590;BME280;66746;51.328;12.332;2023-03-12T07:22:58;100181.94;;;0.45;75.72
77590;BME280;66746;51.328;12.332;2023-03-12T07:25:30;100153.47;;;0.41;76.06
77590;BME280;66746;51.328;12.332;2023-03-12T07:28:00;100141.03;;;0.62;72.83
77590;BME280;66746;51.328;12.332;2023-03-12T07:30:31;100134.75;;;0.78;73.85
77590;BME280;66746;51.328;12.332;2023-03-12T07:32:59;100143.50;;;1.20;72.52
77590;BME280;66746;51.328;12.332;2023-03-12T07:35:30;100171.94;;;1.42;70.01
77590;BME280;66746;51.328;12.332;2023-03-12T07:38:04;100159.44;;;1.48;68.49
77590;BME280;66746;51.328;12.332;2023-03-12T07:40:32;100146.00;;;1.63;69.47
77590;BME280;66746;51.328;12.332;2023-03-12T07:43:00;100165.53;;;1.74;68.86
77590;BME280;66746;51.328;12.332;2023-03-12T07:45:33;100172.66;;;1.75;69.90
77590;BME280;66746;51.328;12.332;2023-03-12T07:48:01;100178.88;;;1.82;69.80
77590;BME280;66746;51.328;12.332;2023-03-12T07:50:30;100138.19;;;1.23;69.16
77590;BME280;66746;51.328;12.332;2023-03-12T07:52:58;100167.47;;;1.44;72.52
77590;BME280;66746;51.328;12.332;2023-03-12T07:55:29;100177.19;;;1.57;71.38
77590;BME280;66746;51.328;12.332;2023-03-12T07:58:01;100138.94;;;1.50;71.41
77590;BME280;66746;51.328;12.332;2023-03-12T08:00:33;100157.47;;;1.85;70.19
77590;BME280;66746;51.328;12.332;2023-03-12T08:03:03;100147.63;;;1.89;69.26
77590;BME280;66746;51.328;12.332;2023-03-12T08:05:34;100153.84;;;1.95;67.90
77590;BME280;66746;51.328;12.332;2023-03-12T08:08:02;100160.75;;;2.26;69.35
77590;BME280;66746;51.328;12.332;2023-03-12T08:10:29;100176.78;;;2.23;68.49
77590;BME280;66746;51.328;12.332;2023-03-12T08:12:58;100144.00;;;2.02;67.91
77590;BME280;66746;51.328;12.332;2023-03-12T08:15:28;100167.75;;;2.39;69.42
77590;BME280;66746;51.328;12.332;2023-03-12T08:18:04;100167.69;;;2.47;66.43
77590;BME280;66746;51.328;12.332;2023-03-12T08:20:34;100170.50;;;2.35;67.14
77590;BME280;66746;51.328;12.332;2023-03-12T08:23:01;100132.31;;;2.13;66.75
77590;BME280;66746;51.328;12.332;2023-03-12T08:25:29;100171.44;;;2.23;67.29
77590;BME280;66746;51.328;12.332;2023-03-12T08:27:59;100149.13;;;2.30;69.62
77590;BME280;66746;51.328;12.332;2023-03-12T08:30:29;100157.00;;;2.48;67.39
77590;BME280;66746;51.328;12.332;2023-03-12T08:33:01;100146.09;;;2.66;69.23
77590;BME280;66746;51.328;12.332;2023-03-12T08:35:29;100123.16;;;2.44;68.69
77590;BME280;66746;51.328;12.332;2023-03-12T08:37:59;100123.19;;;2.38;68.36
77590;BME280;66746;51.328;12.332;2023-03-12T08:40:29;100105.28;;;2.46;68.08
77590;BME280;66746;51.328;12.332;2023-03-12T08:42:59;100121.09;;;2.70;66.06
77590;BME280;66746;51.328;12.332;2023-03-12T08:45:29;100132.34;;;3.04;67.16
77590;BME280;66746;51.328;12.332;2023-03-12T08:47:58;100132.56;;;3.59;66.05
77590;BME280;66746;51.328;12.332;2023-03-12T08:50:29;100102.75;;;3.15;65.77
77590;BME280;66746;51.328;12.332;2023-03-12T08:52:59;100129.44;;;3.24;64.86
77590;BME280;66746;51.328;12.332;2023-03-12T08:55:28;100115.34;;;3.07;64.39
77590;BME280;66746;51.328;12.332;2023-03-12T08:58:01;100140.25;;;3.15;65.38
77590;BME280;66746;51.328;12.332;2023-03-12T09:00:31;100139.53;;;3.01;62.77
77590;BME280;66746;51.328;12.332;2023-03-12T09:03:02;100108.38;;;2.91;63.02
77590;BME280;66746;51.328;12.332;2023-03-12T09:05:31;100129.47;;;3.21;63.93
77590;BME280;66746;51.328;12.332;2023-03-12T09:08:01;100117.91;;;3.19;63.81
77590;BME280;66746;51.328;12.332;2023-03-12T09:10:28;100134.59;;;3.39;65.19
77590;BME280;66746;51.328;12.332;2023-03-12T09:12:59;100111.25;;;3.47;63.34
77590;BME280;66746;51.328;12.332;2023-03-12T09:15:32;100131.72;;;3.55;60.87
77590;BME280;66746;51.328;12.332;2023-03-12T09:17:59;100105.50;;;3.74;66.16
77590;BME280;66746;51.328;12.332;2023-03-12T09:20:28;100109.88;;;3.83;61.80
77590;BME280;66746;51.328;12.332;2023-03-12T09:22:59;100113.25;;;3.97;64.23
77590;BME280;66746;51.328;12.332;2023-03-12T09:25:32;100122.88;;;4.10;62.65
77590;BME280;66746;51.328;12.332;2023-03-12T09:27:59;100103.44;;;3.94;64.09
77590;BME280;66746;51.328;12.332;2023-03-12T09:30:29;100110.63;;;3.92;60.62
77590;BME280;66746;51.328;12.332;2023-03-12T09:32:59;100114.28;;;3.87;63.99
77590;BME280;66746;51.328;12.332;2023-03-12T09:35:32;100123.16;;;3.90;60.75
77590;BME280;66746;51.328;12.332;2023-03-12T09:38:02;100075.06;;;3.78;61.47
77590;BME280;66746;51.328;12.332;2023-03-12T09:40:31;100103.22;;;4.08;61.43
77590;BME280;66746;51.328;12.332;2023-03-12T09:43:01;100092.59;;;4.03;58.95
77590;BME280;66746;51.328;12.332;2023-03-12T09:45:32;100115.97;;;3.92;58.07
77590;BME280;66746;51.328;12.332;2023-03-12T09:48:03;100106.00;;;4.03;58.35
77590;BME280;66746;51.328;12.332;2023-03-12T09:50:32;100074.25;;;4.29;60.21
77590;BME280;66746;51.328;12.332;2023-03-12T09:53:02;100092.03;;;4.36;59.01
77590;BME280;66746;51.328;12.332;2023-03-12T09:55:34;100099.78;;;4.53;61.76
77590;BME280;66746;51.328;12.332;2023-03-12T09:58:02;100066.97;;;4.36;57.45
77590;BME280;66746;51.328;12.332;2023-03-12T10:00:31;100095.78;;;4.77;59.65
77590;BME280;66746;51.328;12.332;2023-03-12T10:03:15;100096.44;;;4.88;56.90
77590;BME280;66746;51.328;12.332;2023-03-12T10:05:59;100079.19;;;4.54;57.69
77590;BME280;66746;51.328;12.332;2023-03-12T10:08:36;100043.47;;;4.48;55.77
77590;BME280;66746;51.328;12.332;2023-03-12T10:11:15;100040.00;;;4.43;57.79
77590;BME280;66746;51.328;12.332;2023-03-12T10:14:05;100049.16;;;4.32;57.46
77590;BME280;66746;51.328;12.332;2023-03-12T10:16:50;100072.09;;;4.49;61.60
77590;BME280;66746;51.328;12.332;2023-03-12T10:19:38;100038.13;;;3.97;57.19
77590;BME280;66746;51.328;12.332;2023-03-12T10:22:15;100057.47;;;4.17;58.62
77590;BME280;66746;51.328;12.332;2023-03-12T10:24:53;100065.19;;;4.35;60.25
77590;BME280;66746;51.328;12.332;2023-03-12T10:27:31;100043.06;;;4.22;61.57
77590;BME280;66746;51.328;12.332;2023-03-12T10:30:00;100045.66;;;4.28;63.13
77590;BME280;66746;51.328;12.332;2023-03-12T10:32:36;100055.28;;;4.40;58.34
77590;BME280;66746;51.328;12.332;2023-03-12T10:35:13;100048.44;;;4.22;58.10
77590;BME280;66746;51.328;12.332;2023-03-12T10:37:42;100059.25;;;4.18;57.32
77590;BME280;66746;51.328;12.332;2023-03-12T10:40:15;100066.56;;;4.59;58.58
77590;BME280;66746;51.328;12.332;2023-03-12T10:42:42;100038.75;;;4.63;58.81
77590;BME280;66746;51.328;12.332;2023-03-12T10:45:19;100050.72;;;4.91;55.84
77590;BME280;66746;51.328;12.332;2023-03-12T10:47:49;100035.72;;;4.81;55.58
77590;BME280;66746;51.328;12.332;2023-03-12T10:50:19;100051.22;;;5.11;58.95
77590;BME280;66746;51.328;12.332;2023-03-12T10:52:48;100032.72;;;4.96;59.36
77590;BME280;66746;51.328;12.332;2023-03-12T10:55:23;100028.44;;;4.86;57.60
77590;BME280;66746;51.328;12.332;2023-03-12T10:58:00;100043.81;;;5.22;56.72
77590;BME280;66746;51.328;12.332;2023-03-12T11:00:30;100008.88;;;5.22;59.51
77590;BME280;66746;51.328;12.332;2023-03-12T11:03:01;100031.44;;;5.15;55.23
77590;BME280;66746;51.328;12.332;2023-03-12T11:05:30;100025.16;;;4.72;55.84
77590;BME280;66746;51.328;12.332;2023-03-12T11:08:02;100043.56;;;4.90;56.90
77590;BME280;66746;51.328;12.332;2023-03-12T11:10:42;100033.19;;;5.16;56.51
77590;BME280;66746;51.328;12.332;2023-03-12T11:13:27;100025.50;;;5.39;56.78
77590;BME280;66746;51.328;12.332;2023-03-12T11:15:57;100018.94;;;5.12;55.10
77590;BME280;66746;51.328;12.332;2023-03-12T11:18:30;100016.75;;;5.29;58.63
77590;BME280;66746;51.328;12.332;2023-03-12T11:21:14;100009.78;;;5.21;54.79
77590;BME280;66746;51.328;12.332;2023-03-12T11:23:44;100012.47;;;5.21;54.83
77590;BME280;66746;51.328;12.332;2023-03-12T11:26:14;100006.94;;;5.27;55.97
77590;BME280;66746;51.328;12.332;2023-03-12T11:28:45;99984.19;;;5.43;56.91
77590;BME280;66746;51.328;12.332;2023-03-12T11:31:18;99984.19;;;5.80;57.78
77590;BME280;66746;51.328;12.332;2023-03-12T11:33:47;99949.94;;;5.51;54.36
77590;BME280;66746;51.328;12.332;2023-03-12T11:36:30;99950.03;;;5.48;55.10
77590;BME280;66746;51.328;12.332;2023-03-12T11:39:01;99949.41;;;5.72;54.26
77590;BME280;66746;51.328;12.332;2023-03-12T11:41:38;99966.34;;;5.77;55.12
77590;BME280;66746;51.328;12.332;2023-03-12T11:44:19;99962.41;;;5.55;56.05
77590;BME280;66746;51.328;12.332;2023-03-12T11:47:15;99958.16;;;5.83;56.27
77590;BME280;66746;51.328;12.332;2023-03-12T11:50:02;99928.19;;;5.62;56.03
77590;BME280;66746;51.328;12.332;2023-03-12T11:52:43;99959.38;;;5.69;55.19
77590;BME280;66746;51.328;12.332;2023-03-12T11:55:20;99935.38;;;5.61;57.68
77590;BME280;66746;51.328;12.332;2023-03-12T11:58:16;99918.41;;;5.58;58.52
77590;BME280;66746;51.328;12.332;2023-03-12T12:01:00;99945.28;;;5.59;54.95
77590;BME280;66746;51.328;12.332;2023-03-12T12:03:47;99934.56;;;5.58;57.15
77590;BME280;66746;51.328;12.332;2023-03-12T12:06:39;99920.66;;;5.39;56.04
77590;BME280;66746;51.328;12.332;2023-03-12T12:09:20;99915.00;;;5.51;56.80
77590;BME280;66746;51.328;12.332;2023-03-12T12:12:13;99912.53;;;5.77;56.55
77590;BME280;66746;51.328;12.332;2023-03-12T12:15:01;99909.53;;;5.89;56.57
77590;BME280;66746;51.328;12.332;2023-03-12T12:17:43;99895.63;;;5.72;53.47
77590;BME280;66746;51.328;12.332;2023-03-12T12:20:36;99894.31;;;5.53;54.60
77590;BME280;66746;51.328;12.332;2023-03-12T12:23:21;99889.78;;;5.55;57.12
77590;BME280;66746;51.328;12.332;2023-03-12T12:26:03;99890.34;;;5.69;56.00
77590;BME280;66746;51.328;12.332;2023-03-12T12:31:33;99858.53;;;5.51;52.58
77590;BME280;66746;51.328;12.332;2023-03-12T12:34:13;99879.72;;;5.63;54.31
77590;BME280;66746;51.328;12.332;2023-03-12T12:36:46;99870.66;;;5.67;56.48
77590;BME280;66746;51.328;12.332;2023-03-12T12:39:17;99862.94;;;5.54;56.57
77590;BME280;66746;51.328;12.332;2023-03-12T12:41:50;99872.91;;;5.49;54.34
77590;BME280;66746;51.328;12.332;2023-03-12T12:44:32;99867.59;;;5.47;53.33
77590;BME280;66746;51.328;12.332;2023-03-12T12:47:08;99850.53;;;5.48;57.06
77590;BME280;66746;51.328;12.332;2023-03-12T12:49:43;99851.19;;;5.56;56.03
77590;BME280;66746;51.328;12.332;2023-03-12T12:52:14;99874.25;;;5.66;58.07
77590;BME280;66746;51.328;12.332;2023-03-12T12:54:50;99846.31;;;5.38;55.77
77590;BME280;66746;51.328;12.332;2023-03-12T12:57:38;99837.72;;;5.24;55.29
77590;BME280;66746;51.328;12.332;2023-03-12T13:00:18;99833.19;;;5.26;55.88
77590;BME280;66746;51.328;12.332;2023-03-12T13:02:49;99853.38;;;5.42;57.86
77590;BME280;66746;51.328;12.332;2023-03-12T13:05:19;99830.09;;;5.41;55.44
77590;BME280;66746;51.328;12.332;2023-03-12T13:07:46;99847.28;;;5.69;54.46
77590;BME280;66746;51.328;12.332;2023-03-12T13:10:40;99864.13;;;5.76;52.86